Nephi, Utah
Current Conditions -  °F | °C
As of 8:47 PM on Sunday 23 Nov 2014 (Local Time) from KPVU Reporting Station
Broken Clouds Broken Clouds  
Wind Chill: 30°   Ceiling: 7000
Heat Index: 30°   Visibility: 15mi
Dew Point: 25°   Wind: 3mph
Humidity: 80%   Direction: NA
Pressure: 30.27"   Gusts: NA
Location:  39.71°N, 111.84°W
Report Text: KPVU 240347Z VRB03KT 15SM BKN070 M01/M04 A3027 RMK LAST
Loading
Personal Weather Stations






























Interactive Weather Map New forecast layout! Learn more

10-Day Weather Forecast

Advertisements
Track Severe Weather on mobile